Historique des mesures à Cassis (13260), France
Quotidien Résumé Mars 9, 2017 Unités:  US    Métrique   Métrique/US
« Précédent (Jour)
Suivant (Jour) »
Quotidien Hebdomadaire Mensuel Annuel Période au choix
  Maximum: Minimum: Moyenne:
Température: 32 °F 55.8 °F 60.4 °F
Point de rosée: 32 °F 44.1 °F 46.4 °F
Humidité: Humidity % 50 % 57 %
Vitesse du vent: WindSpeedKMH mph 0.0 mph 9.6 mph
Rafales: WindSpeedGustKMH mph - -
Vent:- - SSW
Pression: 0 in 29.9 in -
Précipitations: 0 in    
Historical Graphs
 
 
Mesures pour : Mars 9, 2017
Heure Temperature Point de rosée Pression Vent Vitesse du vent Rafales Humidité Pluie (par heure) Conditions
32 °F 32 °F 0 in Calm     Humidity % 0 in SoftwareType W/m2
00:11 58.3 °F 44.1 °F 30.1 in NW 19.1 mph 19.1 mph 59 % 0 in open2300-1.11 W/m2
01:10 57.9 °F 44.2 °F 30.1 in NW 25.3 mph 25.3 mph 60 % 0 in open2300-1.11 W/m2
02:11 56.8 °F 44.8 °F 30.1 in North 8.7 mph 32.8 mph 64 % 0 in open2300-1.11 W/m2
03:10 56.8 °F 45.5 °F 30.1 in NNW 27.0 mph 27.0 mph 66 % 0 in open2300-1.11 W/m2
04:11 56.5 °F 45.7 °F 30.1 in NNW 20.9 mph 20.9 mph 67 % 0 in open2300-1.11 W/m2
05:10 55.8 °F 45 °F 30.1 in NNW 3.5 mph 28.8 mph 67 % 0 in open2300-1.11 W/m2
06:11 55.9 °F 45.1 °F 30 in North 4.7 mph 5.8 mph 67 % 0 in open2300-1.11 W/m2
07:10 56.5 °F 45.7 °F 30.1 in Calm   4.7 mph 67 % 0 in open2300-1.11 W/m2
08:11 57.9 °F 46.2 °F 30.1 in Calm   3.5 mph 65 % 0 in open2300-1.11 W/m2
09:10 59.2 °F 47.5 °F 30.1 in ESE 4.7 mph 8.2 mph 65 % 0 in open2300-1.11 W/m2
10:11 60.4 °F 48.2 °F 30.1 in North 1.4 mph 2.9 mph 64 % 0 in open2300-1.11 W/m2
11:10 63.5 °F 48.4 °F 30.1 in West 6.1 mph 9.7 mph 58 % 0 in open2300-1.11 W/m2
12:11 65.3 °F 49.6 °F 30 in NNE 7.9 mph 13.0 mph 57 % 0 in open2300-1.11 W/m2
13:10 66.9 °F 50.2 °F 30 in WNW 13.0 mph 24.8 mph 55 % 0 in open2300-1.11 W/m2
14:11 67.6 °F 50.7 °F 30 in NW 9.0 mph 29.1 mph 55 % 0 in open2300-1.11 W/m2
15:10 68.5 °F 50.7 °F 30 in NW 9.3 mph 19.1 mph 53 % 0 in open2300-1.11 W/m2
16:11 68.4 °F 50 °F 30 in NNW 33.1 mph 42.2 mph 52 % 0 in open2300-1.11 W/m2
17:10 67.8 °F 50.5 °F 30 in Calm   16.9 mph 54 % 0 in open2300-1.11 W/m2
18:11 66.7 °F 48.6 °F 30 in North 8.2 mph 8.2 mph 52 % 0 in open2300-1.11 W/m2
19:10 64.9 °F 46.8 °F 29.9 in North 11.1 mph 11.1 mph 52 % 0 in open2300-1.11 W/m2
20:11 64.2 °F 45.1 °F 30 in NNW 9.3 mph 18.7 mph 50 % 0 in open2300-1.11 W/m2
21:10 62.4 °F 45 °F 30 in WNW 13.7 mph 22.4 mph 53 % 0 in open2300-1.11 W/m2
22:11 60.6 °F 44.8 °F 30 in Calm   10.8 mph 56 % 0 in open2300-1.11 W/m2
23:10 60.1 °F 45.1 °F 30 in North 2.9 mph 6.1 mph 58 % 0 in open2300-1.11 W/m2
Observations météo à CASSIS
WU-History script by Weather Underground - 1 mb